sensor_id;sensor_type;location;lat;lon;timestamp;temperature;humidity
15554;DHT22;7878;44.632;10.942;2022-12-07T00:01:35;10.20;99.90
15554;DHT22;7878;44.632;10.942;2022-12-07T00:04:02;10.10;99.90
15554;DHT22;7878;44.632;10.942;2022-12-07T00:06:40;10.10;99.90
15554;DHT22;7878;44.632;10.942;2022-12-07T00:09:10;10.10;99.90
15554;DHT22;7878;44.632;10.942;2022-12-07T00:11:36;10.10;99.90
15554;DHT22;7878;44.632;10.942;2022-12-07T00:14:06;10.10;99.90
15554;DHT22;7878;44.632;10.942;2022-12-07T00:16:33;10.10;99.90
15554;DHT22;7878;44.632;10.942;2022-12-07T00:18:59;10.10;99.90
15554;DHT22;7878;44.632;10.942;2022-12-07T00:21:27;10.10;99.90
15554;DHT22;7878;44.632;10.942;2022-12-07T00:23:53;10.10;99.90
15554;DHT22;7878;44.632;10.942;2022-12-07T00:26:22;10.10;99.90
15554;DHT22;7878;44.632;10.942;2022-12-07T00:28:56;10.10;99.90
15554;DHT22;7878;44.632;10.942;2022-12-07T00:31:26;10.10;99.90
15554;DHT22;7878;44.632;10.942;2022-12-07T00:33:52;10.10;99.90
15554;DHT22;7878;44.632;10.942;2022-12-07T00:36:19;10.00;99.90
15554;DHT22;7878;44.632;10.942;2022-12-07T00:38:46;10.00;99.90
15554;DHT22;7878;44.632;10.942;2022-12-07T00:41:17;10.00;99.90
15554;DHT22;7878;44.632;10.942;2022-12-07T00:43:45;10.00;99.90
15554;DHT22;7878;44.632;10.942;2022-12-07T00:46:12;10.00;99.90
15554;DHT22;7878;44.632;10.942;2022-12-07T00:48:38;10.00;99.90
15554;DHT22;7878;44.632;10.942;2022-12-07T00:51:04;10.00;99.90
15554;DHT22;7878;44.632;10.942;2022-12-07T00:53:30;10.00;99.90
15554;DHT22;7878;44.632;10.942;2022-12-07T00:55:56;10.00;99.90
15554;DHT22;7878;44.632;10.942;2022-12-07T00:58:23;10.00;99.90
15554;DHT22;7878;44.632;10.942;2022-12-07T01:00:49;10.00;99.90
15554;DHT22;7878;44.632;10.942;2022-12-07T01:03:16;10.00;99.90
15554;DHT22;7878;44.632;10.942;2022-12-07T01:05:53;10.00;99.90
15554;DHT22;7878;44.632;10.942;2022-12-07T01:08:19;9.90;99.90
15554;DHT22;7878;44.632;10.942;2022-12-07T01:10:45;9.90;99.90
15554;DHT22;7878;44.632;10.942;2022-12-07T01:13:11;9.90;99.90
15554;DHT22;7878;44.632;10.942;2022-12-07T01:15:41;9.90;99.90
15554;DHT22;7878;44.632;10.942;2022-12-07T01:18:08;9.90;99.90
15554;DHT22;7878;44.632;10.942;2022-12-07T01:20:34;9.90;99.90
15554;DHT22;7878;44.632;10.942;2022-12-07T01:23:00;9.90;99.90
15554;DHT22;7878;44.632;10.942;2022-12-07T01:25:25;9.80;99.90
15554;DHT22;7878;44.632;10.942;2022-12-07T01:27:51;9.80;99.90
15554;DHT22;7878;44.632;10.942;2022-12-07T01:30:17;9.80;99.90
15554;DHT22;7878;44.632;10.942;2022-12-07T01:32:42;9.80;99.90
15554;DHT22;7878;44.632;10.942;2022-12-07T01:35:08;9.80;99.90
15554;DHT22;7878;44.632;10.942;2022-12-07T01:37:38;9.80;99.90
15554;DHT22;7878;44.632;10.942;2022-12-07T01:40:06;9.80;99.90
15554;DHT22;7878;44.632;10.942;2022-12-07T01:42:32;9.80;99.90
15554;DHT22;7878;44.632;10.942;2022-12-07T01:47:47;9.90;99.90
15554;DHT22;7878;44.632;10.942;2022-12-07T01:50:13;9.90;99.90
15554;DHT22;7878;44.632;10.942;2022-12-07T01:52:40;9.80;99.90
15554;DHT22;7878;44.632;10.942;2022-12-07T01:55:12;9.80;99.90
15554;DHT22;7878;44.632;10.942;2022-12-07T01:57:43;9.90;99.90
15554;DHT22;7878;44.632;10.942;2022-12-07T02:00:12;9.90;99.90
15554;DHT22;7878;44.632;10.942;2022-12-07T02:02:55;9.90;99.90
15554;DHT22;7878;44.632;10.942;2022-12-07T02:05:25;9.90;99.90
15554;DHT22;7878;44.632;10.942;2022-12-07T02:07:53;9.90;99.90
15554;DHT22;7878;44.632;10.942;2022-12-07T02:12:49;9.90;99.90
15554;DHT22;7878;44.632;10.942;2022-12-07T02:15:15;9.90;99.90
15554;DHT22;7878;44.632;10.942;2022-12-07T02:17:50;9.90;99.90
15554;DHT22;7878;44.632;10.942;2022-12-07T02:20:27;9.90;99.90
15554;DHT22;7878;44.632;10.942;2022-12-07T02:31:38;9.40;99.90
15554;DHT22;7878;44.632;10.942;2022-12-07T02:34:16;9.30;99.90
15554;DHT22;7878;44.632;10.942;2022-12-07T02:36:52;9.30;99.90
15554;DHT22;7878;44.632;10.942;2022-12-07T02:39:36;9.30;99.90
15554;DHT22;7878;44.632;10.942;2022-12-07T02:42:10;9.20;99.90
15554;DHT22;7878;44.632;10.942;2022-12-07T02:44:38;9.20;99.90
15554;DHT22;7878;44.632;10.942;2022-12-07T02:47:07;9.20;99.90
15554;DHT22;7878;44.632;10.942;2022-12-07T02:49:36;9.20;99.90
15554;DHT22;7878;44.632;10.942;2022-12-07T02:52:04;9.20;99.90
15554;DHT22;7878;44.632;10.942;2022-12-07T02:54:29;9.20;99.90
15554;DHT22;7878;44.632;10.942;2022-12-07T03:00:11;9.20;99.90
15554;DHT22;7878;44.632;10.942;2022-12-07T03:18:21;9.40;99.90
15554;DHT22;7878;44.632;10.942;2022-12-07T03:20:50;9.40;99.90
15554;DHT22;7878;44.632;10.942;2022-12-07T03:23:17;9.40;99.90
15554;DHT22;7878;44.632;10.942;2022-12-07T03:25:48;9.50;99.90
15554;DHT22;7878;44.632;10.942;2022-12-07T03:28:18;9.60;99.90
15554;DHT22;7878;44.632;10.942;2022-12-07T03:31:03;9.60;99.90
15554;DHT22;7878;44.632;10.942;2022-12-07T03:34:00;9.50;99.90
15554;DHT22;7878;44.632;10.942;2022-12-07T03:36:38;9.50;99.90
15554;DHT22;7878;44.632;10.942;2022-12-07T03:39:24;9.60;99.90
15554;DHT22;7878;44.632;10.942;2022-12-07T03:41:52;9.60;99.90
15554;DHT22;7878;44.632;10.942;2022-12-07T03:44:18;9.70;99.90
15554;DHT22;7878;44.632;10.942;2022-12-07T03:47:16;9.60;99.90
15554;DHT22;7878;44.632;10.942;2022-12-07T03:49:55;9.60;99.90
15554;DHT22;7878;44.632;10.942;2022-12-07T03:52:29;9.50;99.90
15554;DHT22;7878;44.632;10.942;2022-12-07T03:57:50;9.50;99.90
15554;DHT22;7878;44.632;10.942;2022-12-07T04:00:17;9.60;99.90
15554;DHT22;7878;44.632;10.942;2022-12-07T04:02:43;9.50;99.90
15554;DHT22;7878;44.632;10.942;2022-12-07T04:05:10;9.60;99.90
15554;DHT22;7878;44.632;10.942;2022-12-07T04:07:36;9.60;99.90
15554;DHT22;7878;44.632;10.942;2022-12-07T04:10:02;9.60;99.90
15554;DHT22;7878;44.632;10.942;2022-12-07T04:12:28;9.50;99.90
15554;DHT22;7878;44.632;10.942;2022-12-07T04:14:53;9.50;99.90
15554;DHT22;7878;44.632;10.942;2022-12-07T04:17:19;9.50;99.90
15554;DHT22;7878;44.632;10.942;2022-12-07T04:19:45;9.50;99.90
15554;DHT22;7878;44.632;10.942;2022-12-07T04:22:10;9.50;99.90
15554;DHT22;7878;44.632;10.942;2022-12-07T04:24:36;9.50;99.90
15554;DHT22;7878;44.632;10.942;2022-12-07T04:27:02;9.50;99.90
15554;DHT22;7878;44.632;10.942;2022-12-07T04:29:28;9.50;99.90
15554;DHT22;7878;44.632;10.942;2022-12-07T04:31:54;9.50;99.90
15554;DHT22;7878;44.632;10.942;2022-12-07T04:34:19;9.40;99.90
15554;DHT22;7878;44.632;10.942;2022-12-07T04:36:46;9.50;99.90
15554;DHT22;7878;44.632;10.942;2022-12-07T04:39:23;9.50;99.90
15554;DHT22;7878;44.632;10.942;2022-12-07T04:41:49;9.50;99.90
15554;DHT22;7878;44.632;10.942;2022-12-07T04:44:16;9.50;99.90
15554;DHT22;7878;44.632;10.942;2022-12-07T04:46:42;9.40;99.90
15554;DHT22;7878;44.632;10.942;2022-12-07T04:49:08;9.40;99.90
15554;DHT22;7878;44.632;10.942;2022-12-07T04:51:34;9.40;99.90
15554;DHT22;7878;44.632;10.942;2022-12-07T04:53:59;9.40;99.90
15554;DHT22;7878;44.632;10.942;2022-12-07T04:56:25;9.30;99.90
15554;DHT22;7878;44.632;10.942;2022-12-07T04:58:52;9.40;99.90
15554;DHT22;7878;44.632;10.942;2022-12-07T05:01:19;9.40;99.90
15554;DHT22;7878;44.632;10.942;2022-12-07T05:03:45;9.30;99.90
15554;DHT22;7878;44.632;10.942;2022-12-07T05:06:11;9.40;99.90
15554;DHT22;7878;44.632;10.942;2022-12-07T05:08:37;9.40;99.90
15554;DHT22;7878;44.632;10.942;2022-12-07T05:11:04;9.40;99.90
15554;DHT22;7878;44.632;10.942;2022-12-07T05:13:30;9.40;99.90
15554;DHT22;7878;44.632;10.942;2022-12-07T05:15:55;9.40;99.90
15554;DHT22;7878;44.632;10.942;2022-12-07T05:18:21;9.40;99.90
15554;DHT22;7878;44.632;10.942;2022-12-07T05:20:47;9.50;99.90
15554;DHT22;7878;44.632;10.942;2022-12-07T05:23:13;9.50;99.90
15554;DHT22;7878;44.632;10.942;2022-12-07T05:25:38;9.60;99.90
15554;DHT22;7878;44.632;10.942;2022-12-07T05:28:05;9.60;99.90
15554;DHT22;7878;44.632;10.942;2022-12-07T05:30:31;9.60;99.90
15554;DHT22;7878;44.632;10.942;2022-12-07T05:32:57;9.60;99.90
15554;DHT22;7878;44.632;10.942;2022-12-07T05:35:24;9.60;99.90
15554;DHT22;7878;44.632;10.942;2022-12-07T05:37:50;9.70;99.90
15554;DHT22;7878;44.632;10.942;2022-12-07T05:40:16;9.70;99.90
15554;DHT22;7878;44.632;10.942;2022-12-07T05:42:42;9.70;99.90
15554;DHT22;7878;44.632;10.942;2022-12-07T05:45:09;9.70;99.90
15554;DHT22;7878;44.632;10.942;2022-12-07T05:47:35;9.70;99.90
15554;DHT22;7878;44.632;10.942;2022-12-07T05:50:01;9.80;99.90
15554;DHT22;7878;44.632;10.942;2022-12-07T05:52:26;9.70;99.90
15554;DHT22;7878;44.632;10.942;2022-12-07T05:54:52;9.70;99.90
15554;DHT22;7878;44.632;10.942;2022-12-07T05:57:18;9.80;99.90
15554;DHT22;7878;44.632;10.942;2022-12-07T05:59:44;9.80;99.90
15554;DHT22;7878;44.632;10.942;2022-12-07T06:02:13;9.70;99.90
15554;DHT22;7878;44.632;10.942;2022-12-07T06:04:41;9.70;99.90
15554;DHT22;7878;44.632;10.942;2022-12-07T06:07:08;9.80;99.90
15554;DHT22;7878;44.632;10.942;2022-12-07T06:09:34;9.80;99.90
15554;DHT22;7878;44.632;10.942;2022-12-07T06:12:00;9.80;99.90
15554;DHT22;7878;44.632;10.942;2022-12-07T06:14:45;9.70;99.90
15554;DHT22;7878;44.632;10.942;2022-12-07T06:17:11;9.80;99.90
15554;DHT22;7878;44.632;10.942;2022-12-07T06:19:38;9.80;99.90
15554;DHT22;7878;44.632;10.942;2022-12-07T06:22:04;9.80;99.90
15554;DHT22;7878;44.632;10.942;2022-12-07T06:24:31;9.80;99.90
15554;DHT22;7878;44.632;10.942;2022-12-07T06:26:58;9.80;99.90
15554;DHT22;7878;44.632;10.942;2022-12-07T06:29:23;9.80;99.90
15554;DHT22;7878;44.632;10.942;2022-12-07T06:31:49;9.80;99.90
15554;DHT22;7878;44.632;10.942;2022-12-07T06:34:17;9.80;99.90
15554;DHT22;7878;44.632;10.942;2022-12-07T06:36:43;9.80;99.90
15554;DHT22;7878;44.632;10.942;2022-12-07T06:39:09;9.80;99.90
15554;DHT22;7878;44.632;10.942;2022-12-07T06:41:36;9.80;99.90
15554;DHT22;7878;44.632;10.942;2022-12-07T06:44:03;9.80;99.90
15554;DHT22;7878;44.632;10.942;2022-12-07T06:46:29;9.80;99.90
15554;DHT22;7878;44.632;10.942;2022-12-07T06:48:55;9.90;99.90
15554;DHT22;7878;44.632;10.942;2022-12-07T06:51:20;9.80;99.90
15554;DHT22;7878;44.632;10.942;2022-12-07T06:53:46;9.80;99.90
15554;DHT22;7878;44.632;10.942;2022-12-07T06:56:12;9.90;99.90
15554;DHT22;7878;44.632;10.942;2022-12-07T06:58:38;9.90;99.90
15554;DHT22;7878;44.632;10.942;2022-12-07T07:01:11;9.90;99.90
15554;DHT22;7878;44.632;10.942;2022-12-07T07:03:38;9.90;99.90
15554;DHT22;7878;44.632;10.942;2022-12-07T07:06:04;10.00;99.90
15554;DHT22;7878;44.632;10.942;2022-12-07T07:08:30;9.90;99.90
15554;DHT22;7878;44.632;10.942;2022-12-07T07:10:56;9.90;99.90
15554;DHT22;7878;44.632;10.942;2022-12-07T07:13:22;9.90;99.90
15554;DHT22;7878;44.632;10.942;2022-12-07T07:15:47;9.90;99.90
15554;DHT22;7878;44.632;10.942;2022-12-07T07:18:13;9.90;99.90
15554;DHT22;7878;44.632;10.942;2022-12-07T07:20:39;9.90;99.90
15554;DHT22;7878;44.632;10.942;2022-12-07T07:23:05;10.00;99.90
15554;DHT22;7878;44.632;10.942;2022-12-07T07:25:31;10.00;99.90
15554;DHT22;7878;44.632;10.942;2022-12-07T07:27:57;10.00;99.90
15554;DHT22;7878;44.632;10.942;2022-12-07T07:30:23;10.00;99.90
15554;DHT22;7878;44.632;10.942;2022-12-07T07:32:49;10.00;99.90
15554;DHT22;7878;44.632;10.942;2022-12-07T07:35:15;10.00;99.90
15554;DHT22;7878;44.632;10.942;2022-12-07T07:37:41;10.10;99.90
15554;DHT22;7878;44.632;10.942;2022-12-07T07:40:07;10.10;99.90
15554;DHT22;7878;44.632;10.942;2022-12-07T07:42:33;10.10;99.90
15554;DHT22;7878;44.632;10.942;2022-12-07T07:44:59;10.10;99.90
15554;DHT22;7878;44.632;10.942;2022-12-07T07:47:25;10.10;99.90
15554;DHT22;7878;44.632;10.942;2022-12-07T07:49:50;10.10;99.90
15554;DHT22;7878;44.632;10.942;2022-12-07T07:52:16;10.00;99.90
15554;DHT22;7878;44.632;10.942;2022-12-07T07:54:41;10.00;99.90
15554;DHT22;7878;44.632;10.942;2022-12-07T07:57:07;10.00;99.90
15554;DHT22;7878;44.632;10.942;2022-12-07T07:59:33;10.00;99.90
15554;DHT22;7878;44.632;10.942;2022-12-07T08:01:58;10.00;99.90
15554;DHT22;7878;44.632;10.942;2022-12-07T08:04:24;9.90;99.90
15554;DHT22;7878;44.632;10.942;2022-12-07T08:06:50;10.00;99.90
15554;DHT22;7878;44.632;10.942;2022-12-07T08:09:15;10.00;99.90
15554;DHT22;7878;44.632;10.942;2022-12-07T08:11:41;10.00;99.90
15554;DHT22;7878;44.632;10.942;2022-12-07T08:14:07;10.00;99.90
15554;DHT22;7878;44.632;10.942;2022-12-07T08:16:32;10.00;99.90
15554;DHT22;7878;44.632;10.942;2022-12-07T08:18:58;10.10;99.90
15554;DHT22;7878;44.632;10.942;2022-12-07T08:21:24;10.00;99.90
15554;DHT22;7878;44.632;10.942;2022-12-07T08:23:49;10.10;99.90
15554;DHT22;7878;44.632;10.942;2022-12-07T08:26:16;10.10;99.90
15554;DHT22;7878;44.632;10.942;2022-12-07T08:28:42;10.00;99.90
15554;DHT22;7878;44.632;10.942;2022-12-07T08:31:17;10.10;99.90
15554;DHT22;7878;44.632;10.942;2022-12-07T08:33:45;10.10;99.90
15554;DHT22;7878;44.632;10.942;2022-12-07T08:36:12;10.10;99.90
15554;DHT22;7878;44.632;10.942;2022-12-07T08:38:39;10.10;99.90
15554;DHT22;7878;44.632;10.942;2022-12-07T08:41:06;10.10;99.90
15554;DHT22;7878;44.632;10.942;2022-12-07T08:43:33;10.10;99.90
15554;DHT22;7878;44.632;10.942;2022-12-07T08:48:53;10.10;99.90
15554;DHT22;7878;44.632;10.942;2022-12-07T08:51:21;10.20;99.90
15554;DHT22;7878;44.632;10.942;2022-12-07T08:53:48;10.20;99.90
15554;DHT22;7878;44.632;10.942;2022-12-07T08:56:13;10.20;99.90
15554;DHT22;7878;44.632;10.942;2022-12-07T08:58:39;10.30;99.90
15554;DHT22;7878;44.632;10.942;2022-12-07T09:01:05;10.50;99.90
15554;DHT22;7878;44.632;10.942;2022-12-07T09:03:31;10.60;99.90
15554;DHT22;7878;44.632;10.942;2022-12-07T09:05:58;10.70;99.90
15554;DHT22;7878;44.632;10.942;2022-12-07T09:08:29;10.80;99.90
15554;DHT22;7878;44.632;10.942;2022-12-07T09:10:55;10.80;99.90
15554;DHT22;7878;44.632;10.942;2022-12-07T09:13:21;10.80;99.90
15554;DHT22;7878;44.632;10.942;2022-12-07T09:15:46;10.80;99.90
15554;DHT22;7878;44.632;10.942;2022-12-07T09:18:12;10.80;99.90
15554;DHT22;7878;44.632;10.942;2022-12-07T09:20:38;10.70;99.90
15554;DHT22;7878;44.632;10.942;2022-12-07T09:23:06;10.70;99.90
15554;DHT22;7878;44.632;10.942;2022-12-07T09:25:32;10.80;99.90
15554;DHT22;7878;44.632;10.942;2022-12-07T09:27:58;10.80;99.90
15554;DHT22;7878;44.632;10.942;2022-12-07T09:30:24;10.80;99.90
15554;DHT22;7878;44.632;10.942;2022-12-07T09:32:53;10.90;99.90
15554;DHT22;7878;44.632;10.942;2022-12-07T09:35:19;10.90;99.90
15554;DHT22;7878;44.632;10.942;2022-12-07T09:37:45;10.90;99.90
15554;DHT22;7878;44.632;10.942;2022-12-07T09:40:11;10.90;99.90
15554;DHT22;7878;44.632;10.942;2022-12-07T09:42:40;11.00;99.90
15554;DHT22;7878;44.632;10.942;2022-12-07T09:45:23;11.00;99.90
15554;DHT22;7878;44.632;10.942;2022-12-07T09:47:49;11.10;99.90
15554;DHT22;7878;44.632;10.942;2022-12-07T09:50:26;11.00;99.90
15554;DHT22;7878;44.632;10.942;2022-12-07T09:52:55;11.00;99.90
15554;DHT22;7878;44.632;10.942;2022-12-07T09:55:26;11.00;99.90
15554;DHT22;7878;44.632;10.942;2022-12-07T09:57:53;11.00;99.90
15554;DHT22;7878;44.632;10.942;2022-12-07T10:00:22;10.90;99.90
15554;DHT22;7878;44.632;10.942;2022-12-07T10:05:24;10.90;99.90
15554;DHT22;7878;44.632;10.942;2022-12-07T10:07:51;10.90;99.90
15554;DHT22;7878;44.632;10.942;2022-12-07T10:10:25;10.90;99.90
15554;DHT22;7878;44.632;10.942;2022-12-07T10:13:03;10.90;99.90
15554;DHT22;7878;44.632;10.942;2022-12-07T10:15:52;11.00;99.90
15554;DHT22;7878;44.632;10.942;2022-12-07T10:18:38;11.00;99.90
15554;DHT22;7878;44.632;10.942;2022-12-07T10:21:12;11.10;99.90
15554;DHT22;7878;44.632;10.942;2022-12-07T10:24:02;11.30;99.90
15554;DHT22;7878;44.632;10.942;2022-12-07T10:29:34;11.50;99.90
15554;DHT22;7878;44.632;10.942;2022-12-07T10:32:30;11.50;99.90
15554;DHT22;7878;44.632;10.942;2022-12-07T10:35:22;11.60;99.90
15554;DHT22;7878;44.632;10.942;2022-12-07T10:37:49;11.70;99.90
15554;DHT22;7878;44.632;10.942;2022-12-07T10:40:30;12.00;99.90
15554;DHT22;7878;44.632;10.942;2022-12-07T10:43:04;13.10;99.90
15554;DHT22;7878;44.632;10.942;2022-12-07T10:45:30;14.10;99.90
15554;DHT22;7878;44.632;10.942;2022-12-07T10:49:10;15.00;99.90
15554;DHT22;7878;44.632;10.942;2022-12-07T10:51:18;15.10;98.90
15554;DHT22;7878;44.632;10.942;2022-12-07T11:07:42;13.20;99.90
15554;DHT22;7878;44.632;10.942;2022-12-07T11:10:18;13.10;99.90
15554;DHT22;7878;44.632;10.942;2022-12-07T11:18:32;13.50;99.60
15554;DHT22;7878;44.632;10.942;2022-12-07T11:24:10;14.30;99.30
15554;DHT22;7878;44.632;10.942;2022-12-07T11:36:54;25.30;81.40
15554;DHT22;7878;44.632;10.942;2022-12-07T11:41:49;25.90;77.40
15554;DHT22;7878;44.632;10.942;2022-12-07T11:47:25;22.80;71.50
15554;DHT22;7878;44.632;10.942;2022-12-07T11:50:08;21.90;75.50
15554;DHT22;7878;44.632;10.942;2022-12-07T11:52:48;20.70;76.90
15554;DHT22;7878;44.632;10.942;2022-12-07T11:58:09;18.80;82.90
15554;DHT22;7878;44.632;10.942;2022-12-07T12:00:38;18.10;85.80
15554;DHT22;7878;44.632;10.942;2022-12-07T12:03:11;17.60;88.90
15554;DHT22;7878;44.632;10.942;2022-12-07T12:05:40;17.10;87.70
15554;DHT22;7878;44.632;10.942;2022-12-07T12:08:20;16.70;89.80
15554;DHT22;7878;44.632;10.942;2022-12-07T12:22:10;15.70;90.00
15554;DHT22;7878;44.632;10.942;2022-12-07T12:24:38;16.40;89.40
15554;DHT22;7878;44.632;10.942;2022-12-07T12:27:20;18.60;87.70
15554;DHT22;7878;44.632;10.942;2022-12-07T12:29:53;20.90;83.40
15554;DHT22;7878;44.632;10.942;2022-12-07T12:32:31;22.80;78.70
15554;DHT22;7878;44.632;10.942;2022-12-07T12:35:00;23.80;75.30
15554;DHT22;7878;44.632;10.942;2022-12-07T12:37:42;21.80;77.20
15554;DHT22;7878;44.632;10.942;2022-12-07T12:48:00;16.80;84.50
15554;DHT22;7878;44.632;10.942;2022-12-07T12:50:32;16.30;86.30
15554;DHT22;7878;44.632;10.942;2022-12-07T12:58:28;15.50;85.80
15554;DHT22;7878;44.632;10.942;2022-12-07T13:03:55;14.90;85.70
15554;DHT22;7878;44.632;10.942;2022-12-07T13:08:51;14.60;89.80
15554;DHT22;7878;44.632;10.942;2022-12-07T13:11:41;14.40;90.20
15554;DHT22;7878;44.632;10.942;2022-12-07T13:17:12;14.30;89.90
15554;DHT22;7878;44.632;10.942;2022-12-07T13:19:55;14.10;90.90
15554;DHT22;7878;44.632;10.942;2022-12-07T13:25:22;14.10;90.80
15554;DHT22;7878;44.632;10.942;2022-12-07T13:28:07;14.20;90.30
15554;DHT22;7878;44.632;10.942;2022-12-07T13:30:46;14.10;91.00
15554;DHT22;7878;44.632;10.942;2022-12-07T13:33:15;14.10;90.60
15554;DHT22;7878;44.632;10.942;2022-12-07T13:35:42;13.90;91.20
15554;DHT22;7878;44.632;10.942;2022-12-07T13:38:25;13.70;91.50
15554;DHT22;7878;44.632;10.942;2022-12-07T13:43:55;13.50;90.90
15554;DHT22;7878;44.632;10.942;2022-12-07T13:46:47;13.40;91.70
15554;DHT22;7878;44.632;10.942;2022-12-07T13:49:29;13.30;92.00
15554;DHT22;7878;44.632;10.942;2022-12-07T13:52:17;13.10;92.00
15554;DHT22;7878;44.632;10.942;2022-12-07T13:54:54;13.00;92.60
15554;DHT22;7878;44.632;10.942;2022-12-07T13:57:21;12.90;92.80
15554;DHT22;7878;44.632;10.942;2022-12-07T13:59:47;12.80;93.20
15554;DHT22;7878;44.632;10.942;2022-12-07T14:02:22;12.60;93.40
15554;DHT22;7878;44.632;10.942;2022-12-07T14:04:50;12.60;93.50
15554;DHT22;7878;44.632;10.942;2022-12-07T14:07:26;12.50;93.70
15554;DHT22;7878;44.632;10.942;2022-12-07T14:10:02;12.50;93.70
15554;DHT22;7878;44.632;10.942;2022-12-07T14:12:29;12.40;93.70
15554;DHT22;7878;44.632;10.942;2022-12-07T14:14:56;12.30;93.80
15554;DHT22;7878;44.632;10.942;2022-12-07T14:17:24;12.30;94.20
15554;DHT22;7878;44.632;10.942;2022-12-07T14:19:53;12.20;94.30
15554;DHT22;7878;44.632;10.942;2022-12-07T14:22:25;12.10;94.40
15554;DHT22;7878;44.632;10.942;2022-12-07T14:24:58;12.10;94.40
15554;DHT22;7878;44.632;10.942;2022-12-07T14:27:24;12.00;94.50
15554;DHT22;7878;44.632;10.942;2022-12-07T14:29:56;11.90;94.80
15554;DHT22;7878;44.632;10.942;2022-12-07T14:32:26;11.90;94.80
15554;DHT22;7878;44.632;10.942;2022-12-07T14:34:56;11.90;95.10
15554;DHT22;7878;44.632;10.942;2022-12-07T14:37:24;11.80;95.10
15554;DHT22;7878;44.632;10.942;2022-12-07T14:39:49;11.80;95.40
15554;DHT22;7878;44.632;10.942;2022-12-07T14:42:15;11.70;95.60
15554;DHT22;7878;44.632;10.942;2022-12-07T14:44:42;11.70;95.70
15554;DHT22;7878;44.632;10.942;2022-12-07T14:47:10;11.60;95.70
15554;DHT22;7878;44.632;10.942;2022-12-07T14:49:36;11.60;95.80
15554;DHT22;7878;44.632;10.942;2022-12-07T14:52:02;11.50;95.80
15554;DHT22;7878;44.632;10.942;2022-12-07T14:54:30;11.50;96.00
15554;DHT22;7878;44.632;10.942;2022-12-07T14:56:56;11.40;96.10
15554;DHT22;7878;44.632;10.942;2022-12-07T14:59:22;11.30;96.10
15554;DHT22;7878;44.632;10.942;2022-12-07T15:01:48;11.30;96.40
15554;DHT22;7878;44.632;10.942;2022-12-07T15:04:13;11.30;96.70
15554;DHT22;7878;44.632;10.942;2022-12-07T15:06:39;11.20;96.40
15554;DHT22;7878;44.632;10.942;2022-12-07T15:09:05;11.20;96.50
15554;DHT22;7878;44.632;10.942;2022-12-07T15:11:31;11.10;96.70
15554;DHT22;7878;44.632;10.942;2022-12-07T15:13:57;11.10;96.80
15554;DHT22;7878;44.632;10.942;2022-12-07T15:16:37;11.10;96.90
15554;DHT22;7878;44.632;10.942;2022-12-07T15:19:05;11.00;97.00
15554;DHT22;7878;44.632;10.942;2022-12-07T15:21:31;10.90;97.10
15554;DHT22;7878;44.632;10.942;2022-12-07T15:23:56;10.80;97.20
15554;DHT22;7878;44.632;10.942;2022-12-07T15:26:22;10.80;97.30
15554;DHT22;7878;44.632;10.942;2022-12-07T15:28:48;10.70;97.40
15554;DHT22;7878;44.632;10.942;2022-12-07T15:31:14;10.60;97.40
15554;DHT22;7878;44.632;10.942;2022-12-07T15:33:41;10.60;97.60
15554;DHT22;7878;44.632;10.942;2022-12-07T15:36:07;10.60;97.50
15554;DHT22;7878;44.632;10.942;2022-12-07T15:38:33;10.60;97.40
15554;DHT22;7878;44.632;10.942;2022-12-07T15:40:58;10.50;97.40
15554;DHT22;7878;44.632;10.942;2022-12-07T15:43:24;10.40;97.50
15554;DHT22;7878;44.632;10.942;2022-12-07T15:46:08;10.30;97.60
15554;DHT22;7878;44.632;10.942;2022-12-07T15:48:34;10.30;97.80
15554;DHT22;7878;44.632;10.942;2022-12-07T15:51:07;10.20;98.00
15554;DHT22;7878;44.632;10.942;2022-12-07T15:53:33;10.20;98.10
15554;DHT22;7878;44.632;10.942;2022-12-07T15:55:59;10.30;98.20
15554;DHT22;7878;44.632;10.942;2022-12-07T15:58:25;10.30;98.20
15554;DHT22;7878;44.632;10.942;2022-12-07T16:00:51;10.10;98.10
15554;DHT22;7878;44.632;10.942;2022-12-07T16:03:17;10.20;98.20
15554;DHT22;7878;44.632;10.942;2022-12-07T16:05:51;10.10;98.10
15554;DHT22;7878;44.632;10.942;2022-12-07T16:08:17;10.10;98.20
15554;DHT22;7878;44.632;10.942;2022-12-07T16:10:43;10.10;98.10
15554;DHT22;7878;44.632;10.942;2022-12-07T16:13:10;10.10;98.20
15554;DHT22;7878;44.632;10.942;2022-12-07T16:15:41;10.10;98.20
15554;DHT22;7878;44.632;10.942;2022-12-07T16:18:08;10.10;98.10
15554;DHT22;7878;44.632;10.942;2022-12-07T16:20:33;10.10;98.00
15554;DHT22;7878;44.632;10.942;2022-12-07T16:22:59;10.00;98.00
15554;DHT22;7878;44.632;10.942;2022-12-07T16:25:25;10.00;98.20
15554;DHT22;7878;44.632;10.942;2022-12-07T16:27:52;10.00;98.30
15554;DHT22;7878;44.632;10.942;2022-12-07T16:30:18;9.90;98.70
15554;DHT22;7878;44.632;10.942;2022-12-07T16:32:44;9.90;98.90
15554;DHT22;7878;44.632;10.942;2022-12-07T16:35:10;9.90;98.90
15554;DHT22;7878;44.632;10.942;2022-12-07T16:37:37;9.90;98.90
15554;DHT22;7878;44.632;10.942;2022-12-07T16:40:03;9.90;98.90
15554;DHT22;7878;44.632;10.942;2022-12-07T16:42:32;9.90;99.00
15554;DHT22;7878;44.632;10.942;2022-12-07T16:44:58;9.90;99.00
15554;DHT22;7878;44.632;10.942;2022-12-07T16:47:24;9.90;99.00
15554;DHT22;7878;44.632;10.942;2022-12-07T16:49:50;9.80;99.00
15554;DHT22;7878;44.632;10.942;2022-12-07T16:52:18;9.70;99.10
15554;DHT22;7878;44.632;10.942;2022-12-07T16:54:44;9.70;99.20
15554;DHT22;7878;44.632;10.942;2022-12-07T16:57:09;9.70;99.20
15554;DHT22;7878;44.632;10.942;2022-12-07T16:59:35;9.70;99.30
15554;DHT22;7878;44.632;10.942;2022-12-07T17:02:01;9.70;99.30
15554;DHT22;7878;44.632;10.942;2022-12-07T17:04:27;9.70;99.20
15554;DHT22;7878;44.632;10.942;2022-12-07T17:06:53;9.60;99.30
15554;DHT22;7878;44.632;10.942;2022-12-07T17:09:19;9.60;99.30
15554;DHT22;7878;44.632;10.942;2022-12-07T17:11:45;9.50;99.40
15554;DHT22;7878;44.632;10.942;2022-12-07T17:14:11;9.50;99.50
15554;DHT22;7878;44.632;10.942;2022-12-07T17:16:55;9.50;99.70
15554;DHT22;7878;44.632;10.942;2022-12-07T17:19:21;9.50;99.70
15554;DHT22;7878;44.632;10.942;2022-12-07T17:21:47;9.50;99.60
15554;DHT22;7878;44.632;10.942;2022-12-07T17:24:15;9.50;99.80
15554;DHT22;7878;44.632;10.942;2022-12-07T17:26:42;9.60;99.60
15554;DHT22;7878;44.632;10.942;2022-12-07T17:29:10;9.50;99.60
15554;DHT22;7878;44.632;10.942;2022-12-07T17:31:36;9.50;99.50
15554;DHT22;7878;44.632;10.942;2022-12-07T17:34:02;9.50;99.60
15554;DHT22;7878;44.632;10.942;2022-12-07T17:36:30;9.50;99.70
15554;DHT22;7878;44.632;10.942;2022-12-07T17:38:56;9.50;99.70
15554;DHT22;7878;44.632;10.942;2022-12-07T17:41:28;9.50;99.70
15554;DHT22;7878;44.632;10.942;2022-12-07T17:44:17;9.50;99.70
15554;DHT22;7878;44.632;10.942;2022-12-07T17:46:45;9.50;99.60
15554;DHT22;7878;44.632;10.942;2022-12-07T17:49:11;9.60;99.60
15554;DHT22;7878;44.632;10.942;2022-12-07T17:51:37;9.50;99.60
15554;DHT22;7878;44.632;10.942;2022-12-07T17:54:21;9.50;99.60